Time;durP1;ratioP1;P1;durP2;ratioP2;P2;SDS_P1;SDS_P2;PMS_P1;PMS_P2;Temp;Humidity;BMP_temperature;BMP_pressure;BME280_temperature;BME280_humidity;BME280_pressure;Samples;Min_cycle;Max_cycle;Signal;HPM_P1;HPM_P2
2023/09/15 00:01:39;;;;;;;7.57;5.38;;;;;;;16.01;65.44;96972.72;6282112;22;20070;-79
2023/09/15 00:04:08;;;;;;;5.72;4.80;;;;;;;15.96;65.79;96968.09;6280691;22;20019;-78
2023/09/15 00:06:37;;;;;;;5.68;4.75;;;;;;;15.95;66.04;96968.28;6278796;22;20012;-78
2023/09/15 00:09:06;;;;;;;5.55;4.78;;;;;;;15.93;65.77;96971.09;6278612;22;20058;-79
2023/09/15 00:11:40;;;;;;;6.18;4.93;;;;;;;15.89;65.94;96962.00;6278295;22;20019;-79
2023/09/15 00:14:10;;;;;;;6.20;4.60;;;;;;;15.90;66.24;96963.63;6278158;22;20396;-79
2023/09/15 00:16:40;;;;;;;8.32;4.57;;;;;;;15.92;66.04;96951.09;6278154;22;20024;-79
2023/09/15 00:19:13;;;;;;;5.45;4.50;;;;;;;15.92;65.82;96958.97;6278957;22;20012;-79
2023/09/15 00:21:42;;;;;;;7.78;5.22;;;;;;;15.90;66.03;96953.13;6278086;22;20078;-79
2023/09/15 00:24:10;;;;;;;7.97;4.53;;;;;;;15.91;66.27;96959.19;6278410;22;20098;-79
2023/09/15 00:26:38;;;;;;;7.53;4.88;;;;;;;15.92;65.99;96958.97;6278369;22;20062;-79
2023/09/15 00:29:07;;;;;;;5.80;4.45;;;;;;;15.92;66.20;96960.78;6277990;22;20065;-78
2023/09/15 00:31:37;;;;;;;7.43;5.65;;;;;;;15.86;65.97;96962.44;6278322;22;20015;-78
2023/09/15 00:34:05;;;;;;;5.45;4.70;;;;;;;15.82;66.44;96953.34;6277593;22;20023;-79
2023/09/15 00:36:33;;;;;;;7.88;5.55;;;;;;;15.82;66.44;96954.13;6278968;22;20074;-79
2023/09/15 00:39:01;;;;;;;8.45;5.20;;;;;;;15.85;66.54;96953.75;6277804;22;20019;-79
2023/09/15 00:41:29;;;;;;;6.13;4.80;;;;;;;15.85;66.68;96955.53;6278398;22;20404;-79
2023/09/15 00:43:57;;;;;;;7.95;5.38;;;;;;;15.81;66.92;96949.09;6277705;22;20023;-79
2023/09/15 00:46:24;;;;;;;6.32;4.65;;;;;;;15.83;67.05;96953.13;6278747;22;20043;-79
2023/09/15 00:48:55;;;;;;;8.05;5.28;;;;;;;15.88;66.68;96952.50;6278216;22;20069;-79
2023/09/15 00:51:23;;;;;;;7.55;5.47;;;;;;;15.92;66.71;96947.63;6288930;22;20040;-78
2023/09/15 00:53:51;;;;;;;6.30;5.38;;;;;;;15.92;66.49;96940.56;6294647;22;20033;-78
2023/09/15 00:56:19;;;;;;;7.35;5.90;;;;;;;15.94;66.29;96953.50;6286397;22;20085;-79
2023/09/15 00:58:47;;;;;;;9.85;5.60;;;;;;;15.93;66.19;96944.00;6277674;22;20019;-78
2023/09/15 01:01:16;;;;;;;7.88;5.82;;;;;;;15.91;66.29;96944.19;6277702;22;20412;-78
2023/09/15 01:03:45;;;;;;;10.50;5.72;;;;;;;15.92;66.33;96943.19;6279656;22;20077;-79
2023/09/15 01:06:16;;;;;;;5.78;5.18;;;;;;;15.93;66.38;96939.53;6277268;22;20043;-79
2023/09/15 01:08:44;;;;;;;6.70;5.15;;;;;;;15.94;65.98;96943.81;6277020;22;20069;-78
2023/09/15 01:11:13;;;;;;;6.40;4.97;;;;;;;15.94;65.73;96938.53;6277681;22;20019;-78
2023/09/15 01:13:40;;;;;;;5.82;5.15;;;;;;;15.89;66.27;96940.16;6277671;22;20084;-79
2023/09/15 01:16:16;;;;;;;5.57;5.03;;;;;;;15.85;67.55;96940.59;6277783;22;20031;-78
2023/09/15 01:18:54;;;;;;;7.35;5.47;;;;;;;15.81;67.58;96938.56;6278138;22;20058;-79
2023/09/15 01:22:03;;;;;;;6.50;5.28;;;;;;;15.83;69.02;96941.78;6278032;22;20457;-79
2023/09/15 01:25:09;;;;;;;5.47;4.50;;;;;;;15.84;69.45;96938.94;6218717;22;20020;-79
2023/09/15 01:27:55;;;;;;;6.65;5.38;;;;;;;15.88;69.95;96933.28;6281473;22;20024;-78
2023/09/15 01:30:26;;;;;;;7.43;5.80;;;;;;;15.89;69.72;96930.44;6281454;22;20026;-78
2023/09/15 01:32:56;;;;;;;8.20;5.75;;;;;;;15.90;70.12;96934.69;6281043;22;20484;-78
2023/09/15 01:35:25;;;;;;;6.75;5.60;;;;;;;15.93;69.90;96933.47;6281725;22;20019;-78
2023/09/15 01:37:52;;;;;;;7.05;5.40;;;;;;;15.94;69.79;96930.66;6281372;22;20019;-79
2023/09/15 01:40:20;;;;;;;6.05;5.25;;;;;;;15.96;69.88;96930.41;6281504;22;20354;-79
2023/09/15 01:42:50;;;;;;;5.90;4.75;;;;;;;15.98;70.18;96931.84;6281296;22;20024;-78
2023/09/15 01:45:18;;;;;;;5.47;4.90;;;;;;;15.99;69.95;96930.03;6281487;22;20353;-79
2023/09/15 01:47:48;;;;;;;6.70;4.60;;;;;;;16.00;69.99;96937.69;6281475;22;20026;-78
2023/09/15 01:50:16;;;;;;;7.63;5.22;;;;;;;16.02;69.98;96938.28;6281725;22;20030;-79
2023/09/15 01:52:45;;;;;;;7.00;4.78;;;;;;;16.01;69.92;96933.25;6292226;22;20004;-78
2023/09/15 01:55:13;;;;;;;9.25;5.40;;;;;;;16.01;69.83;96938.50;6304698;22;20023;-79
2023/09/15 01:57:41;;;;;;;6.15;5.20;;;;;;;15.98;69.84;96929.22;6293050;22;20019;-79
2023/09/15 02:00:10;;;;;;;5.72;4.90;;;;;;;15.98;70.05;96934.47;6281193;22;20027;-79
2023/09/15 02:02:38;;;;;;;5.78;5.10;;;;;;;15.98;70.05;96933.66;6279986;22;20441;-78
2023/09/15 02:05:10;;;;;;;7.57;4.90;;;;;;;15.98;70.32;96931.84;6281338;22;20019;-78
2023/09/15 02:07:37;;;;;;;6.38;5.72;;;;;;;15.98;70.01;96934.47;6280990;22;20031;-79
2023/09/15 02:10:05;;;;;;;6.03;5.10;;;;;;;15.96;69.75;96933.88;6281382;22;20094;-79
2023/09/15 02:12:33;;;;;;;5.63;4.13;;;;;;;15.98;69.86;96931.03;6280690;22;20015;-78
2023/09/15 02:15:01;;;;;;;6.20;4.75;;;;;;;15.99;70.00;96930.81;6280462;22;20468;-78
2023/09/15 02:17:30;;;;;;;5.57;4.70;;;;;;;16.01;69.68;96931.41;6280958;22;20396;-78
2023/09/15 02:19:57;;;;;;;6.22;5.63;;;;;;;16.00;69.44;96923.72;6281247;22;20103;-79
2023/09/15 02:22:27;;;;;;;7.03;5.47;;;;;;;15.98;69.81;96929.22;6280623;22;20039;-79
2023/09/15 02:24:55;;;;;;;5.93;5.03;;;;;;;15.98;69.66;96929.22;6281216;22;20338;-79
2023/09/15 02:27:22;;;;;;;5.80;5.03;;;;;;;16.00;68.60;96924.53;6281634;22;20019;-78
2023/09/15 02:29:51;;;;;;;7.10;5.50;;;;;;;15.98;67.45;96929.22;6280838;22;20027;-79
2023/09/15 02:32:18;;;;;;;6.43;4.90;;;;;;;15.96;67.99;96931.25;6281351;22;20069;-78
2023/09/15 02:34:46;;;;;;;6.35;4.82;;;;;;;15.99;67.66;96932.66;6280114;22;20106;-79
2023/09/15 02:37:15;;;;;;;8.23;4.88;;;;;;;16.00;67.13;96927.16;6279460;22;20024;-79
2023/09/15 02:39:44;;;;;;;6.45;4.80;;;;;;;16.02;66.39;96934.84;6279357;22;20024;-79
2023/09/15 02:42:12;;;;;;;6.82;5.57;;;;;;;15.99;65.67;96925.56;6279953;22;20024;-78
2023/09/15 02:44:39;;;;;;;6.95;5.72;;;;;;;15.96;65.82;96933.03;6279194;22;20099;-78
2023/09/15 02:47:07;;;;;;;7.65;5.13;;;;;;;15.94;65.96;96932.44;6279316;22;20030;-78
2023/09/15 02:49:35;;;;;;;6.15;4.90;;;;;;;15.93;65.66;96936.91;6279262;22;20028;-78
2023/09/15 02:52:04;;;;;;;7.20;5.80;;;;;;;15.95;65.65;96932.25;6278761;22;20327;-78
2023/09/15 02:54:32;;;;;;;6.95;5.75;;;;;;;15.92;65.51;96932.66;6278517;22;20042;-79
2023/09/15 02:57:02;;;;;;;7.90;6.07;;;;;;;15.86;65.47;96936.94;6279036;22;20077;-79
2023/09/15 02:59:30;;;;;;;8.43;5.70;;;;;;;15.80;65.92;96921.16;6280065;22;20019;-78
2023/09/15 03:01:59;;;;;;;6.20;5.30;;;;;;;15.76;66.15;96925.22;6284792;22;20077;-78
2023/09/15 03:04:27;;;;;;;6.97;5.07;;;;;;;15.74;66.42;96929.88;6278270;22;20089;-78
2023/09/15 03:06:54;;;;;;;6.03;4.63;;;;;;;15.77;66.54;96929.47;6278369;22;20020;-79
2023/09/15 03:09:22;;;;;;;6.97;6.13;;;;;;;15.76;66.10;96922.59;6278896;22;20019;-78
2023/09/15 03:11:50;;;;;;;7.68;5.47;;;;;;;15.76;66.41;96919.97;6278245;22;20093;-78
2023/09/15 03:14:19;;;;;;;5.85;4.63;;;;;;;15.77;66.24;96921.59;6278038;22;20055;-78
2023/09/15 03:16:47;;;;;;;5.95;5.05;;;;;;;15.77;65.79;96926.84;6278511;22;20023;-79
2023/09/15 03:19:15;;;;;;;6.53;5.93;;;;;;;15.76;65.30;96925.22;6278512;22;20399;-78
2023/09/15 03:21:43;;;;;;;7.65;6.32;;;;;;;15.71;65.48;96927.63;6278488;22;20031;-79
2023/09/15 03:24:11;;;;;;;7.22;5.85;;;;;;;15.68;65.70;96914.88;6278435;22;20361;-79
2023/09/15 03:26:39;;;;;;;6.50;5.43;;;;;;;15.61;65.82;96922.78;6278289;22;20051;-78
2023/09/15 03:29:07;;;;;;;8.15;5.88;;;;;;;15.55;66.27;96924.44;6278413;22;20034;-78
2023/09/15 03:31:36;;;;;;;7.80;5.18;;;;;;;15.53;66.85;96918.56;6278550;22;20480;-79
2023/09/15 03:34:04;;;;;;;8.38;6.57;;;;;;;15.53;66.57;96915.13;6278314;22;20019;-78
2023/09/15 03:36:32;;;;;;;7.35;4.78;;;;;;;15.54;66.65;96920.16;6278845;22;20356;-79
2023/09/15 03:39:00;;;;;;;9.25;5.18;;;;;;;15.56;66.73;96912.88;6278374;22;20030;-79
2023/09/15 03:41:27;;;;;;;7.22;5.35;;;;;;;15.58;66.47;96905.59;6278146;22;20019;-78
2023/09/15 03:43:55;;;;;;;7.80;6.50;;;;;;;15.56;66.21;96902.38;6278310;22;20601;-78
2023/09/15 03:46:24;;;;;;;9.60;6.25;;;;;;;15.52;66.38;96903.78;6277964;22;20015;-78
2023/09/15 03:48:53;;;;;;;6.70;5.38;;;;;;;15.53;66.65;96915.94;6278006;22;20024;-79
2023/09/15 03:51:21;;;;;;;10.52;7.07;;;;;;;15.51;66.53;96904.03;6278143;22;20020;-78
2023/09/15 03:53:48;;;;;;;6.13;5.45;;;;;;;15.52;66.76;96906.41;6278196;22;20024;-79
2023/09/15 03:56:16;;;;;;;8.80;5.90;;;;;;;15.55;66.70;96910.47;6278392;22;20023;-78
2023/09/15 03:58:45;;;;;;;6.60;5.53;;;;;;;15.58;66.54;96908.22;6278226;22;20084;-78
2023/09/15 04:01:13;;;;;;;8.35;6.20;;;;;;;15.62;66.62;96909.44;6277685;22;20448;-79
2023/09/15 04:03:41;;;;;;;8.35;6.28;;;;;;;15.65;66.27;96902.97;6278072;22;20024;-78
2023/09/15 04:06:10;;;;;;;7.63;6.03;;;;;;;15.62;66.57;96909.44;6278083;22;20019;-78
2023/09/15 04:08:37;;;;;;;7.47;5.22;;;;;;;15.62;66.66;96898.91;6278161;22;20024;-79
2023/09/15 04:11:07;;;;;;;7.28;5.78;;;;;;;15.66;66.67;96896.69;6278687;22;20357;-78
2023/09/15 04:13:34;;;;;;;9.05;6.82;;;;;;;15.68;66.32;96896.47;6277031;22;20016;-78
2023/09/15 04:16:04;;;;;;;7.45;6.57;;;;;;;15.65;66.53;96898.53;6277500;22;20102;-78
2023/09/15 04:18:32;;;;;;;8.02;6.45;;;;;;;15.60;66.43;96898.31;6278011;22;20024;-78
2023/09/15 04:21:00;;;;;;;8.65;6.32;;;;;;;15.53;66.52;96896.72;6277955;22;20085;-79
2023/09/15 04:23:29;;;;;;;9.05;6.88;;;;;;;15.43;66.86;96902.41;6277032;22;20552;-78
2023/09/15 04:25:57;;;;;;;10.05;6.63;;;;;;;15.35;67.11;96894.72;6277994;22;20059;-79
2023/09/15 04:28:25;;;;;;;7.75;6.53;;;;;;;15.28;67.36;96896.56;6277520;22;20051;-79
2023/09/15 04:30:52;;;;;;;8.40;6.10;;;;;;;15.21;67.86;96899.19;6278491;22;20047;-79
2023/09/15 04:33:20;;;;;;;7.72;5.75;;;;;;;15.21;67.98;96902.63;6277591;22;20028;-78
2023/09/15 04:35:48;;;;;;;7.65;6.47;;;;;;;15.25;67.91;96903.84;6283064;22;20466;-79
2023/09/15 04:38:15;;;;;;;8.02;6.07;;;;;;;15.27;67.87;96895.75;6295380;22;20019;-79
2023/09/15 04:40:44;;;;;;;8.02;6.75;;;;;;;15.25;67.74;96898.59;6295603;22;20014;-78
2023/09/15 04:43:12;;;;;;;8.07;6.70;;;;;;;15.21;67.78;96907.88;6280755;22;20020;-79
2023/09/15 04:45:40;;;;;;;8.43;7.20;;;;;;;15.14;67.70;96901.03;6277490;22;20027;-78
2023/09/15 04:48:08;;;;;;;9.00;6.30;;;;;;;15.07;68.35;96901.03;6283963;22;20024;-78
2023/09/15 04:50:36;;;;;;;7.60;6.80;;;;;;;15.01;68.64;96896.59;6299583;22;20023;-78
2023/09/15 04:53:05;;;;;;;7.70;6.53;;;;;;;14.97;68.81;96892.72;6299810;22;20020;-78
2023/09/15 04:55:32;;;;;;;7.60;6.55;;;;;;;14.96;68.66;96899.00;6278513;22;20023;-78
2023/09/15 04:58:01;;;;;;;8.90;7.07;;;;;;;14.93;68.77;96900.19;6277325;22;20092;-78
2023/09/15 05:00:34;;;;;;;8.18;6.80;;;;;;;14.89;69.04;96898.19;6277091;22;20018;-78
2023/09/15 05:03:02;;;;;;;9.93;7.63;;;;;;;14.86;68.92;96898.59;6276715;22;20024;-78
2023/09/15 05:05:30;;;;;;;8.80;7.53;;;;;;;14.78;69.13;96897.78;6277103;22;20030;-78
2023/09/15 05:07:57;;;;;;;9.38;7.93;;;;;;;14.71;69.41;96904.03;6276945;22;20353;-78
2023/09/15 05:10:27;;;;;;;9.77;7.95;;;;;;;14.63;70.00;96895.34;6278002;22;20030;-78
2023/09/15 05:12:54;;;;;;;9.95;8.15;;;;;;;14.62;69.94;96896.34;6286159;22;20038;-79
2023/09/15 05:15:23;;;;;;;9.93;7.13;;;;;;;14.62;69.97;96906.03;6276298;22;20024;-78
2023/09/15 05:17:51;;;;;;;10.32;7.50;;;;;;;14.63;69.82;96899.78;6275910;22;20077;-79
2023/09/15 05:20:19;;;;;;;8.98;7.70;;;;;;;14.62;70.14;96898.16;6277249;22;20094;-79
2023/09/15 05:22:46;;;;;;;10.90;7.10;;;;;;;14.63;70.52;96897.16;6275990;22;20020;-79
2023/09/15 05:25:14;;;;;;;6.90;6.13;;;;;;;14.71;70.32;96904.03;6276331;22;20051;-78
2023/09/15 05:27:42;;;;;;;11.10;6.15;;;;;;;14.81;70.04;96897.38;6277115;22;20055;-79
2023/09/15 05:30:11;;;;;;;9.10;7.35;;;;;;;14.90;69.65;96905.06;6276831;22;20522;-78
2023/09/15 05:32:42;;;;;;;10.30;7.60;;;;;;;14.90;69.36;96891.94;6276534;22;20023;-78
2023/09/15 05:35:10;;;;;;;12.07;7.82;;;;;;;14.84;69.45;96901.41;6277210;22;20416;-79
2023/09/15 05:37:38;;;;;;;9.77;8.05;;;;;;;14.79;69.66;96898.59;6276225;22;20023;-78
2023/09/15 05:40:08;;;;;;;11.65;8.13;;;;;;;14.77;70.08;96901.41;6276736;22;20023;-78
2023/09/15 05:42:35;;;;;;;12.25;8.00;;;;;;;14.77;70.00;96905.88;6276487;22;20492;-78
2023/09/15 05:45:03;;;;;;;10.05;7.43;;;;;;;14.77;70.22;96900.59;6276634;22;20095;-78
2023/09/15 05:47:31;;;;;;;8.68;7.32;;;;;;;14.80;70.25;96906.28;6276041;22;20461;-78
2023/09/15 05:50:04;;;;;;;9.20;7.35;;;;;;;14.87;70.29;96908.06;6277485;22;20346;-79
2023/09/15 05:52:31;;;;;;;;;;;;;;;14.92;70.02;96903.84;6277247;22;20465;-78
2023/09/15 05:54:59;;;;;;;12.00;9.05;;;;;;;14.89;69.89;96900.81;6276936;22;19915;-78
2023/09/15 05:57:26;;;;;;;9.32;8.32;;;;;;;14.89;70.13;96903.44;6276404;22;20532;-78
2023/09/15 05:59:54;;;;;;;11.43;8.65;;;;;;;14.87;70.11;96900.19;6277088;22;20039;-78
2023/09/15 06:02:22;;;;;;;11.40;7.65;;;;;;;14.84;70.34;96896.97;6276911;22;20080;-78
2023/09/15 06:04:50;;;;;;;9.48;8.23;;;;;;;14.83;70.39;96903.25;6277485;22;20020;-78
2023/09/15 06:07:20;;;;;;;13.27;8.50;;;;;;;14.83;70.77;96907.69;6277203;22;20051;-78
2023/09/15 06:09:48;;;;;;;13.95;9.13;;;;;;;14.84;71.10;96907.47;6282185;22;20023;-79
2023/09/15 06:12:15;;;;;;;15.35;8.60;;;;;;;14.87;71.26;96900.19;6279907;22;20461;-78
2023/09/15 06:14:43;;;;;;;11.25;8.43;;;;;;;14.89;71.20;96893.75;6277671;22;20361;-78
2023/09/15 06:17:12;;;;;;;12.38;8.57;;;;;;;14.92;71.19;96897.78;6278515;22;20015;-78
2023/09/15 06:19:39;;;;;;;9.65;7.70;;;;;;;14.94;71.77;96901.03;6278243;22;20361;-78
2023/09/15 06:22:07;;;;;;;10.05;7.45;;;;;;;14.98;71.83;96900.41;6278071;22;20023;-78
2023/09/15 06:24:36;;;;;;;9.93;7.38;;;;;;;15.07;72.00;96902.84;6278402;22;20396;-79
2023/09/15 06:27:04;;;;;;;12.55;9.38;;;;;;;15.14;71.58;96901.81;6279619;22;20027;-79
2023/09/15 06:29:31;;;;;;;13.75;8.80;;;;;;;15.18;71.26;96908.28;6279743;22;20074;-78
2023/09/15 06:31:59;;;;;;;11.35;8.57;;;;;;;15.23;71.55;96905.06;6279495;22;20039;-78
2023/09/15 06:34:27;;;;;;;15.98;8.40;;;;;;;15.31;71.53;96902.22;6279465;22;20345;-78
2023/09/15 06:36:54;;;;;;;13.15;8.98;;;;;;;15.41;71.11;96912.31;6278973;22;20106;-78
2023/09/15 06:39:23;;;;;;;9.82;8.10;;;;;;;15.54;71.15;96903.59;6279213;22;20023;-78
2023/09/15 06:41:52;;;;;;;14.05;8.25;;;;;;;15.70;71.67;96910.22;6278849;22;20020;-78
2023/09/15 06:44:20;;;;;;;13.68;8.27;;;;;;;15.91;71.44;96909.19;6278392;22;20111;-78
2023/09/15 06:46:48;;;;;;;12.13;9.43;;;;;;;16.14;71.98;96914.78;6279448;22;20028;-78
2023/09/15 06:49:21;;;;;;;10.55;9.07;;;;;;;16.37;72.22;96916.88;6279774;22;20019;-78
2023/09/15 06:51:49;;;;;;;11.18;8.20;;;;;;;16.59;71.86;96911.28;6279879;22;20365;-78
2023/09/15 06:54:17;;;;;;;10.50;9.27;;;;;;;16.81;71.61;96912.59;6280271;22;20357;-78
2023/09/15 06:56:44;;;;;;;14.27;9.98;;;;;;;17.03;71.58;96913.06;6280969;22;20023;-78
2023/09/15 06:59:13;;;;;;;13.63;10.23;;;;;;;17.24;71.37;96905.78;6281401;22;20472;-78
2023/09/15 07:01:41;;;;;;;10.23;8.75;;;;;;;17.44;70.78;96902.97;6282269;22;20023;-78
2023/09/15 07:04:10;;;;;;;12.32;9.38;;;;;;;17.67;70.31;96903.13;6282420;22;20030;-78
2023/09/15 07:06:38;;;;;;;11.00;9.10;;;;;;;17.89;69.92;96905.38;6282947;22;20062;-78
2023/09/15 07:09:06;;;;;;;12.70;10.38;;;;;;;18.13;69.24;96906.31;6283286;22;20023;-78
2023/09/15 07:11:34;;;;;;;11.68;8.75;;;;;;;18.35;68.63;96906.63;6283658;22;20107;-78
2023/09/15 07:14:01;;;;;;;9.85;8.07;;;;;;;18.53;66.45;96903.94;6283225;22;20073;-78
2023/09/15 07:16:31;;;;;;;11.32;7.88;;;;;;;18.66;65.74;96918.00;6284346;22;20031;-78
2023/09/15 07:19:00;;;;;;;11.18;7.88;;;;;;;18.80;64.82;96914.16;6283626;22;20079;-78
2023/09/15 07:21:27;;;;;;;10.30;8.07;;;;;;;18.91;64.52;96916.03;6285743;22;20030;-78
2023/09/15 07:23:55;;;;;;;10.77;7.63;;;;;;;19.02;64.25;96906.53;6293106;22;20024;-78
2023/09/15 07:26:26;;;;;;;9.13;8.02;;;;;;;19.10;63.86;96913.28;6282850;22;20024;-78
2023/09/15 07:28:54;;;;;;;11.65;9.13;;;;;;;19.17;64.52;96918.47;6283036;22;20438;-78
2023/09/15 07:31:21;;;;;;;13.20;9.43;;;;;;;19.26;64.77;96914.44;6284495;22;20056;-78
2023/09/15 07:33:50;;;;;;;13.07;10.30;;;;;;;19.40;65.05;96918.50;6284934;22;20098;-78
2023/09/15 07:36:18;;;;;;;15.45;11.85;;;;;;;19.54;65.17;96909.28;6285901;22;20099;-78
2023/09/15 07:38:46;;;;;;;15.30;12.10;;;;;;;19.71;65.07;96913.91;6285648;22;20062;-78
2023/09/15 07:41:14;;;;;;;15.68;11.80;;;;;;;19.91;65.00;96914.31;6286049;22;20050;-78
2023/09/15 07:43:42;;;;;;;19.60;13.07;;;;;;;20.13;64.36;96909.19;6286416;22;20089;-78
2023/09/15 07:46:12;;;;;;;13.75;11.02;;;;;;;20.36;63.34;96923.44;6289174;22;20035;-78
2023/09/15 07:48:42;;;;;;;13.17;10.67;;;;;;;20.57;62.52;96920.16;6301809;22;20031;-78
2023/09/15 07:51:13;;;;;;;16.15;12.63;;;;;;;20.77;62.28;96918.88;6302959;22;20249;-78
2023/09/15 07:53:41;;;;;;;14.70;11.47;;;;;;;20.99;61.89;96919.00;6289016;22;20453;-78
2023/09/15 07:56:09;;;;;;;17.02;13.02;;;;;;;21.19;61.63;96911.38;6290374;22;20020;-78
2023/09/15 07:58:36;;;;;;;13.60;10.23;;;;;;;21.45;60.62;96910.97;6290186;22;20023;-78
2023/09/15 08:01:05;;;;;;;16.20;12.10;;;;;;;21.69;59.90;96907.06;6289767;22;20097;-78
2023/09/15 08:03:33;;;;;;;17.83;12.02;;;;;;;21.93;59.61;96912.13;6290958;22;20020;-78
2023/09/15 08:06:02;;;;;;;14.00;10.55;;;;;;;22.18;59.06;96907.13;6291023;22;20468;-78
2023/09/15 08:08:31;;;;;;;14.93;11.70;;;;;;;22.44;58.09;96915.44;6290501;22;20019;-78
2023/09/15 08:11:00;;;;;;;12.35;9.35;;;;;;;22.70;58.00;96911.16;6292478;22;20024;-78
2023/09/15 08:13:27;;;;;;;11.18;9.93;;;;;;;22.99;57.12;96910.88;6292357;22;20047;-78
2023/09/15 08:15:55;;;;;;;12.60;10.05;;;;;;;23.24;56.09;96903.13;6292605;22;20023;-78
2023/09/15 08:18:23;;;;;;;11.73;10.25;;;;;;;23.50;55.58;96910.47;6292235;22;20016;-78
2023/09/15 08:20:51;;;;;;;13.18;10.63;;;;;;;23.76;54.63;96914.91;6293591;22;20023;-78
2023/09/15 08:23:19;;;;;;;10.48;8.63;;;;;;;24.02;53.79;96909.72;6298219;22;20024;-78
2023/09/15 08:25:48;;;;;;;13.43;10.65;;;;;;;24.32;52.83;96914.38;6299227;22;20016;-79
2023/09/15 08:28:15;;;;;;;11.40;8.65;;;;;;;24.74;51.98;96909.94;6297080;22;20449;-79
2023/09/15 08:30:46;;;;;;;11.85;8.98;;;;;;;25.52;50.48;96914.22;6293181;22;20054;-78
2023/09/15 08:33:14;;;;;;;11.30;9.10;;;;;;;26.28;48.05;96911.34;6293175;22;20020;-78
2023/09/15 08:35:41;;;;;;;10.80;9.50;;;;;;;26.59;46.35;96907.69;6295702;22;20023;-79
2023/09/15 08:38:09;;;;;;;9.93;8.07;;;;;;;26.45;46.82;96896.78;6295208;22;20023;-79
2023/09/15 08:40:43;;;;;;;13.55;8.80;;;;;;;26.57;45.93;96899.97;6295970;22;20039;-79
2023/09/15 08:43:12;;;;;;;10.18;8.02;;;;;;;27.25;44.75;96901.09;6294813;22;20020;-79
2023/09/15 08:45:40;;;;;;;7.38;6.60;;;;;;;28.29;42.71;96903.16;6290878;22;20020;-79
2023/09/15 08:48:11;;;;;;;7.75;6.72;;;;;;;28.50;42.19;96894.88;6283892;22;20016;-79
2023/09/15 08:50:39;;;;;;;8.90;7.00;;;;;;;28.29;42.46;96888.97;6279308;22;20466;-79
2023/09/15 08:53:07;;;;;;;6.78;6.07;;;;;;;28.48;42.50;96899.75;6277395;22;20020;-79
2023/09/15 08:55:35;;;;;;;9.15;6.25;;;;;;;29.47;40.60;96898.72;6277001;22;20479;-79
2023/09/15 08:58:04;;;;;;;8.65;7.43;;;;;;;30.15;38.59;96896.34;6277612;22;20030;-80
2023/09/15 09:00:34;;;;;;;7.35;5.95;;;;;;;29.88;39.03;96891.81;6278201;22;20020;-79
2023/09/15 09:03:03;;;;;;;10.13;7.15;;;;;;;29.78;39.04;96898.16;6277817;22;20023;-80
2023/09/15 09:05:33;;;;;;;12.68;7.47;;;;;;;30.50;38.26;96896.72;6279981;22;20020;-79
2023/09/15 09:08:03;;;;;;;8.90;6.80;;;;;;;31.29;37.13;96890.00;6279320;22;20058;-80
2023/09/15 09:10:31;;;;;;;8.57;6.28;;;;;;;30.98;37.65;96886.22;6279305;22;20024;-80
2023/09/15 09:12:59;;;;;;;8.65;7.85;;;;;;;30.68;37.94;96886.88;6279453;22;20099;-80
2023/09/15 09:15:32;;;;;;;9.77;6.88;;;;;;;30.84;38.08;96881.94;6280357;22;20023;-80
2023/09/15 09:18:01;;;;;;;7.90;7.10;;;;;;;32.08;35.78;96883.06;6279108;22;20024;-79
2023/09/15 09:20:29;;;;;;;8.75;7.05;;;;;;;33.95;33.26;96892.72;6277426;22;20623;-78
2023/09/15 09:22:57;;;;;;;7.15;6.45;;;;;;;35.48;30.86;96883.22;6279951;22;20053;-79
2023/09/15 09:25:29;;;;;;;8.38;5.78;;;;;;;36.88;28.44;96890.22;6280624;22;20055;-79
2023/09/15 09:27:57;;;;;;;6.68;4.68;;;;;;;37.92;25.40;96881.25;6279834;22;20062;-79
2023/09/15 09:30:29;;;;;;;4.95;4.43;;;;;;;38.53;23.77;96886.13;6279515;22;20035;-79
2023/09/15 09:32:57;;;;;;;4.57;4.18;;;;;;;38.99;23.32;96888.22;6282442;22;20023;-79
2023/09/15 09:35:26;;;;;;;4.13;3.83;;;;;;;39.45;22.40;96876.56;6276917;22;20020;-79
2023/09/15 09:37:55;;;;;;;6.28;4.20;;;;;;;39.65;22.05;96875.38;6277066;22;20019;-78
2023/09/15 09:40:23;;;;;;;4.28;3.97;;;;;;;39.87;21.98;96876.50;6276736;22;20469;-79
2023/09/15 09:42:51;;;;;;;4.20;3.63;;;;;;;40.18;21.38;96871.88;6276821;22;20019;-79
2023/09/15 09:45:25;;;;;;;5.15;4.65;;;;;;;40.01;21.63;96870.47;6279253;22;20023;-81
2023/09/15 09:47:53;;;;;;;5.50;4.20;;;;;;;39.96;21.75;96865.31;6279850;22;20097;-81
2023/09/15 09:50:22;;;;;;;4.90;4.40;;;;;;;39.92;22.79;96861.75;6279071;22;20047;-81
2023/09/15 09:52:52;;;;;;;6.50;4.80;;;;;;;40.58;21.78;96864.97;6287169;22;20027;-81
2023/09/15 09:55:20;;;;;;;4.85;4.15;;;;;;;41.65;20.21;96865.31;6281188;22;20062;-81
2023/09/15 09:57:48;;;;;;;4.20;3.80;;;;;;;42.41;20.45;96861.16;6281561;22;20023;-81
2023/09/15 10:00:18;;;;;;;4.30;3.80;;;;;;;43.14;19.01;96860.97;6281990;22;20049;-81
2023/09/15 10:02:47;;;;;;;4.07;3.67;;;;;;;43.70;18.02;96866.94;6281107;22;20252;-81
2023/09/15 10:05:15;;;;;;;6.20;4.18;;;;;;;44.08;17.80;96855.53;6280216;22;20015;-81
2023/09/15 10:07:45;;;;;;;4.70;3.90;;;;;;;44.42;17.29;96850.31;6285563;22;20019;-81
2023/09/15 10:10:15;;;;;;;3.67;3.38;;;;;;;44.71;17.55;96856.47;6284471;22;20396;-81
2023/09/15 10:12:42;;;;;;;5.85;4.38;;;;;;;45.08;17.14;96854.31;6281738;22;20023;-81
2023/09/15 10:15:11;;;;;;;4.75;4.00;;;;;;;45.48;16.61;96847.34;6281681;22;20472;-82
2023/09/15 10:17:39;;;;;;;3.47;3.28;;;;;;;45.95;16.27;96846.94;6281531;22;20019;-81
2023/09/15 10:20:09;;;;;;;4.13;3.75;;;;;;;46.34;16.09;96845.72;6280174;22;20516;-82
2023/09/15 10:22:38;;;;;;;4.72;3.70;;;;;;;46.40;15.70;96849.63;6279660;22;20077;-82
2023/09/15 10:25:07;;;;;;;3.65;3.33;;;;;;;46.57;15.66;96848.63;6279493;22;20081;-81
2023/09/15 10:27:36;;;;;;;3.92;3.63;;;;;;;46.83;15.17;96843.56;6278170;22;20019;-81
2023/09/15 10:30:05;;;;;;;3.78;3.47;;;;;;;46.93;14.67;96836.31;6278985;22;20393;-82
2023/09/15 10:32:38;;;;;;;3.67;3.42;;;;;;;47.01;14.00;96844.09;6278379;22;20037;-82
2023/09/15 10:35:07;;;;;;;3.38;3.08;;;;;;;47.17;14.36;96839.94;6280349;22;20035;-82
2023/09/15 10:37:40;;;;;;;3.47;3.20;;;;;;;47.25;13.96;96846.91;6280383;22;20058;-82
2023/09/15 10:40:10;;;;;;;4.10;3.42;;;;;;;47.21;13.82;96840.66;6280927;22;20488;-82
2023/09/15 10:42:49;;;;;;;3.40;3.13;;;;;;;46.91;13.97;96834.00;6279786;22;20027;-82
2023/09/15 10:45:18;;;;;;;4.03;3.72;;;;;;;46.81;13.78;96829.41;6293189;22;20024;-82
2023/09/15 10:47:55;;;;;;;2.88;2.67;;;;;;;46.77;14.35;96831.44;6298039;22;20040;-82
2023/09/15 10:50:30;;;;;;;3.40;3.10;;;;;;;46.88;14.11;96829.28;6287779;22;20016;-82
2023/09/15 10:53:06;;;;;;;4.03;2.90;;;;;;;46.92;13.97;96835.53;6284184;22;20028;-82
2023/09/15 10:55:34;;;;;;;3.25;2.60;;;;;;;46.95;13.92;96823.69;6282843;22;20492;-82
2023/09/15 10:58:04;;;;;;;3.28;2.97;;;;;;;47.00;13.82;96825.97;6282536;22;20017;-82
2023/09/15 11:00:33;;;;;;;2.72;2.53;;;;;;;47.27;13.40;96822.41;6282704;22;20023;-82
2023/09/15 11:03:03;;;;;;;4.40;2.90;;;;;;;47.51;13.33;96814.16;6282635;22;20026;-82
2023/09/15 11:05:31;;;;;;;5.40;2.83;;;;;;;47.63;13.18;96819.09;6282579;22;20043;-82
2023/09/15 11:07:59;;;;;;;3.00;2.80;;;;;;;47.39;13.13;96816.28;6281644;22;20043;-82
2023/09/15 11:10:28;;;;;;;3.17;2.88;;;;;;;47.03;13.39;96825.13;6282425;22;20500;-82
2023/09/15 11:13:00;;;;;;;3.78;3.47;;;;;;;46.57;13.95;96821.03;6281534;22;20030;-82
2023/09/15 11:15:30;;;;;;;3.20;2.83;;;;;;;46.33;13.77;96814.59;6281962;22;20032;-82
2023/09/15 11:17:57;;;;;;;3.75;2.90;;;;;;;46.11;14.29;96805.81;6280887;22;20021;-82
2023/09/15 11:20:25;;;;;;;3.35;3.13;;;;;;;45.97;14.50;96803.22;6281812;22;20023;-82
2023/09/15 11:22:56;;;;;;;3.67;3.38;;;;;;;45.66;14.00;96814.16;6280567;22;20020;-82
2023/09/15 11:25:24;;;;;;;3.03;2.83;;;;;;;45.24;14.80;96810.56;6281056;22;20054;-82
2023/09/15 11:27:53;;;;;;;3.65;3.30;;;;;;;45.06;14.92;96796.13;6281340;22;20369;-82
2023/09/15 11:30:27;;;;;;;3.42;3.13;;;;;;;44.86;14.50;96802.16;6280586;22;20024;-82
2023/09/15 11:32:58;;;;;;;3.78;3.47;;;;;;;44.63;15.15;96799.91;6280706;22;20050;-82
2023/09/15 11:35:26;;;;;;;4.28;3.55;;;;;;;44.22;15.70;96795.78;6280599;22;20389;-82
2023/09/15 11:37:54;;;;;;;3.72;3.42;;;;;;;43.92;16.15;96784.47;6280691;22;20335;-82
2023/09/15 11:40:22;;;;;;;3.42;2.60;;;;;;;43.95;16.43;96789.16;6280525;22;20047;-82